Time;durP1;ratioP1;P1;durP2;ratioP2;P2;SDS_P1;SDS_P2;PMS_P1;PMS_P2;Temp;Humidity;BMP_temperature;BMP_pressure;BME280_temperature;BME280_humidity;BME280_pressure;Samples;Min_cycle;Max_cycle;Signal;HPM_P1;HPM_P2
2021/03/23 00:07:14;;;;;;;0.80;0.20;;;0.00;61.60;;;;;;20914244;28;20099;-55
2021/03/23 00:17:16;;;;;;;2.55;0.50;;;-0.30;62.30;;;;;;20914770;28;20045;-56
2021/03/23 00:27:18;;;;;;;3.88;0.77;;;-0.30;62.10;;;;;;20912798;28;20070;-53
2021/03/23 00:37:20;;;;;;;1.15;0.20;;;-0.30;62.20;;;;;;20911628;28;20102;-54
2021/03/23 00:47:22;;;;;;;2.67;0.30;;;-0.40;63.00;;;;;;20912633;28;20551;-56
2021/03/23 00:57:24;;;;;;;2.72;0.60;;;-0.40;63.80;;;;;;20910934;28;20045;-54
2021/03/23 01:07:26;;;;;;;1.58;0.35;;;-0.40;64.20;;;;;;20910272;28;20106;-56
2021/03/23 01:17:28;;;;;;;0.98;0.40;;;-0.60;63.90;;;;;;20909298;28;20044;-50
2021/03/23 01:27:30;;;;;;;0.98;0.38;;;-0.50;64.40;;;;;;20909919;28;20037;-56
2021/03/23 01:37:32;;;;;;;3.00;0.50;;;-0.60;65.00;;;;;;20909429;28;20041;-56
2021/03/23 01:47:36;;;;;;;1.63;0.50;;;-0.90;66.20;;;;;;20916616;28;20518;-55
2021/03/23 01:57:40;;;;;;;0.75;0.40;;;-0.90;65.90;;;;;;20924668;28;20400;-55
2021/03/23 02:07:42;;;;;;;1.25;0.30;;;-0.70;65.50;;;;;;20907561;28;20110;-52
2021/03/23 02:17:44;;;;;;;0.75;0.30;;;-0.80;66.20;;;;;;20906381;28;20041;-54
2021/03/23 02:27:46;;;;;;;4.57;0.40;;;-0.90;68.00;;;;;;20923489;28;20094;-53
2021/03/23 02:37:48;;;;;;;3.13;0.40;;;-1.70;72.30;;;;;;20921156;28;20106;-53
2021/03/23 02:47:50;;;;;;;0.77;0.40;;;-2.00;75.80;;;;;;20920988;28;20176;-51
2021/03/23 02:57:52;;;;;;;0.90;0.30;;;-2.00;73.30;;;;;;20921215;28;20166;-53
2021/03/23 03:07:54;;;;;;;2.05;0.40;;;-1.60;72.60;;;;;;20918530;28;20558;-53
2021/03/23 03:17:57;;;;;;;0.60;0.20;;;-1.80;72.90;;;;;;20919697;28;20049;-50
2021/03/23 03:27:59;;;;;;;0.90;0.30;;;-1.80;75.00;;;;;;20901062;28;20040;-55
2021/03/23 03:38:03;;;;;;;0.90;0.20;;;-2.10;75.20;;;;;;20916584;28;20053;-53
2021/03/23 03:48:05;;;;;;;1.40;0.40;;;-2.30;77.40;;;;;;20916066;28;20122;-58
2021/03/23 03:58:07;;;;;;;0.43;0.20;;;-2.50;79.80;;;;;;20915435;28;20041;-52
2021/03/23 04:08:11;;;;;;;0.82;0.30;;;-2.80;82.60;;;;;;20915356;28;20053;-53
2021/03/23 04:18:16;;;;;;;0.77;0.30;;;-3.00;84.80;;;;;;20915018;28;20052;-54
2021/03/23 04:28:19;;;;;;;1.58;0.30;;;-2.90;84.80;;;;;;20912721;28;20051;-53
2021/03/23 04:38:25;;;;;;;1.30;0.47;;;-3.00;87.20;;;;;;20879267;28;20542;-54
2021/03/23 04:48:27;;;;;;;1.17;0.52;;;-3.10;88.20;;;;;;20912367;28;20037;-54
2021/03/23 04:58:29;;;;;;;1.38;0.20;;;-3.30;89.70;;;;;;20912041;28;20554;-54
2021/03/23 05:08:32;;;;;;;1.23;0.28;;;-3.20;90.50;;;;;;20909751;28;20045;-50
2021/03/23 05:18:35;;;;;;;0.70;0.30;;;-2.90;87.50;;;;;;20909996;28;20037;-52
2021/03/23 05:28:37;;;;;;;0.47;0.20;;;-2.80;87.30;;;;;;20908518;28;20044;-53
2021/03/23 05:38:39;;;;;;;1.73;0.45;;;-2.90;88.70;;;;;;20909791;28;20484;-54
2021/03/23 05:49:07;;;;;;;1.20;0.50;;;-2.40;87.90;;;;;;20909105;28;20443;-54
2021/03/23 05:59:16;;;;;;;2.78;0.40;;;-2.00;90.10;;;;;;20891997;28;20041;-54
2021/03/23 06:09:25;;;;;;;1.02;0.40;;;-1.90;91.40;;;;;;20908234;28;20476;-52
2021/03/23 06:20:07;;;;;;;1.90;0.60;;;-1.90;92.80;;;;;;20908023;28;20087;-53
2021/03/23 06:30:33;;;;;;;0.73;0.40;;;-1.90;92.60;;;;;;20907502;28;20049;-52
2021/03/23 06:40:36;;;;;;;1.25;0.70;;;-1.80;91.50;;;;;;20922908;28;20059;-52
2021/03/23 06:50:38;;;;;;;2.28;0.90;;;-1.50;91.90;;;;;;20922541;28;20037;-51
2021/03/23 07:00:40;;;;;;;2.58;1.00;;;-0.80;92.00;;;;;;20903630;28;20103;-55
2021/03/23 07:11:02;;;;;;;1.63;0.90;;;0.00;92.80;;;;;;20918981;28;20128;-55
2021/03/23 07:21:33;;;;;;;2.08;1.00;;;0.90;90.20;;;;;;20918400;28;20059;-54
2021/03/23 07:31:45;;;;;;;6.15;0.95;;;1.30;89.50;;;;;;20918935;28;20476;-56
2021/03/23 07:41:53;;;;;;;2.22;0.88;;;1.50;89.50;;;;;;20916150;28;20163;-58
2021/03/23 07:52:22;;;;;;;1.27;0.65;;;1.80;88.60;;;;;;20917074;28;20067;-55
2021/03/23 08:02:37;;;;;;;4.50;1.73;;;2.30;83.50;;;;;;20915288;28;20037;-53
2021/03/23 08:13:03;;;;;;;3.22;1.30;;;2.90;89.90;;;;;;20914875;28;20044;-55
2021/03/23 08:23:42;;;;;;;4.32;1.65;;;3.40;88.20;;;;;;20914855;28;20041;-53
2021/03/23 08:33:56;;;;;;;3.28;1.40;;;3.90;87.10;;;;;;20912625;28;20037;-57
2021/03/23 08:43:59;;;;;;;3.95;1.63;;;4.60;84.60;;;;;;20912495;28;20041;-56
2021/03/23 08:54:04;;;;;;;3.85;1.90;;;5.60;85.70;;;;;;20912649;28;20378;-52
2021/03/23 09:04:09;;;;;;;5.10;1.92;;;6.60;78.30;;;;;;20911827;28;20103;-56
2021/03/23 09:14:15;;;;;;;7.50;2.00;;;6.70;79.50;;;;;;20910970;28;20067;-56
2021/03/23 09:24:34;;;;;;;6.85;2.17;;;6.50;81.90;;;;;;20909571;28;20075;-54
2021/03/23 09:35:02;;;;;;;3.45;1.90;;;6.70;80.50;;;;;;20909833;28;20071;-57
2021/03/23 09:45:22;;;;;;;4.97;1.77;;;7.10;78.90;;;;;;20908192;28;20067;-54
2021/03/23 09:55:25;;;;;;;4.70;1.45;;;6.90;77.10;;;;;;20891078;28;20067;-53
2021/03/23 10:05:31;;;;;;;5.82;1.58;;;6.60;72.00;;;;;;20909620;28;20103;-56
2021/03/23 10:15:39;;;;;;;3.88;1.50;;;7.50;71.60;;;;;;20925282;28;20041;-56
2021/03/23 10:25:44;;;;;;;3.10;1.50;;;7.90;67.00;;;;;;20922983;28;20091;-55
2021/03/23 10:35:53;;;;;;;4.78;1.48;;;7.60;65.70;;;;;;20923321;28;20392;-52
2021/03/23 10:45:58;;;;;;;4.97;1.73;;;7.90;60.70;;;;;;20904768;28;20032;-57
2021/03/23 10:56:00;;;;;;;4.80;1.90;;;8.40;63.50;;;;;;20920607;28;20041;-55
2021/03/23 11:06:03;;;;;;;5.05;2.33;;;8.60;62.60;;;;;;20921355;28;20064;-54
2021/03/23 11:16:07;;;;;;;5.72;2.95;;;8.80;72.20;;;;;;20917959;28;20091;-57
2021/03/23 11:26:25;;;;;;;9.93;2.50;;;9.50;71.50;;;;;;20901387;28;20033;-53
2021/03/23 11:36:29;;;;;;;8.50;2.78;;;9.30;68.60;;;;;;20918599;28;20087;-56
2021/03/23 11:46:47;;;;;;;3.38;1.73;;;9.10;69.80;;;;;;20900285;28;20028;-55
2021/03/23 11:56:49;;;;;;;7.68;3.28;;;9.10;61.90;;;;;;20916931;28;20059;-53
2021/03/23 12:07:19;;;;;;;6.72;3.38;;;8.80;70.80;;;;;;20898397;28;20052;-56
2021/03/23 12:17:22;;;;;;;6.30;2.92;;;9.70;67.70;;;;;;20915333;28;20037;-59
2021/03/23 12:27:24;;;;;;;10.45;3.47;;;10.10;66.40;;;;;;20912971;28;20037;-56
2021/03/23 12:37:27;;;;;;;6.15;3.63;;;10.20;68.10;;;;;;20895853;28;20033;-54
2021/03/23 12:47:29;;;;;;;6.43;3.30;;;10.20;68.40;;;;;;20895175;28;20037;-58
2021/03/23 12:57:39;;;;;;;5.40;3.58;;;10.20;67.70;;;;;;20911047;28;20041;-53
2021/03/23 13:07:42;;;;;;;6.25;3.60;;;10.60;67.50;;;;;;20911508;28;20488;-52
2021/03/23 13:17:44;;;;;;;8.27;4.28;;;10.30;68.30;;;;;;20910133;28;20044;-55
2021/03/23 13:27:47;;;;;;;8.88;4.22;;;10.30;68.50;;;;;;20892724;28;20527;-53
2021/03/23 13:37:49;;;;;;;5.75;3.78;;;10.20;67.40;;;;;;20908482;28;20425;-49
2021/03/23 13:47:52;;;;;;;6.10;4.20;;;10.00;68.50;;;;;;20908469;28;20473;-51
2021/03/23 13:58:00;;;;;;;6.90;3.35;;;9.50;67.50;;;;;;20907577;28;20033;-57
2021/03/23 14:08:06;;;;;;;7.32;3.70;;;9.10;67.20;;;;;;20907867;28;20049;-54
2021/03/23 14:18:12;;;;;;;6.25;3.47;;;8.70;66.90;;;;;;20908317;28;20064;-56
2021/03/23 14:28:21;;;;;;;6.25;2.85;;;8.40;65.20;;;;;;20908035;28;20033;-57
2021/03/23 14:38:26;;;;;;;6.45;3.25;;;8.20;64.10;;;;;;20907782;28;20033;-51
2021/03/23 14:48:28;;;;;;;4.65;2.70;;;7.90;63.10;;;;;;20905564;28;20095;-54
2021/03/23 14:58:30;;;;;;;8.20;3.00;;;7.30;64.50;;;;;;20918869;28;20049;-55
2021/03/23 15:08:42;;;;;;;5.43;2.92;;;6.90;64.50;;;;;;20921312;28;20110;-55
2021/03/23 15:18:45;;;;;;;5.20;2.85;;;6.40;66.60;;;;;;20920059;28;20049;-55
2021/03/23 15:28:47;;;;;;;4.35;2.72;;;5.90;67.50;;;;;;20918464;28;20055;-56
2021/03/23 15:38:50;;;;;;;4.88;3.38;;;5.70;68.50;;;;;;20915975;28;20041;-57
2021/03/23 15:48:52;;;;;;;5.30;3.47;;;5.30;69.70;;;;;;20917889;28;20029;-55
2021/03/23 15:58:54;;;;;;;8.55;4.10;;;5.00;71.80;;;;;;20916994;28;20458;-60
2021/03/23 16:09:01;;;;;;;11.07;3.17;;;4.50;73.50;;;;;;20913703;28;20053;-59
2021/03/23 16:19:04;;;;;;;6.35;3.38;;;3.80;74.70;;;;;;20915305;28;20037;-57
2021/03/23 16:29:06;;;;;;;5.88;3.53;;;3.10;78.00;;;;;;20914499;28;20033;-56
2021/03/23 16:39:09;;;;;;;8.75;3.70;;;2.80;81.30;;;;;;20912483;28;20459;-54
2021/03/23 16:49:11;;;;;;;7.63;4.00;;;2.50;83.40;;;;;;20913140;28;20048;-59
2021/03/23 16:59:13;;;;;;;10.80;3.50;;;2.30;87.30;;;;;;20912187;28;20037;-54
2021/03/23 17:09:16;;;;;;;6.53;3.30;;;2.00;88.30;;;;;;20910060;28;20130;-57
2021/03/23 17:19:19;;;;;;;7.43;3.85;;;1.70;90.70;;;;;;20911126;28;20037;-57
2021/03/23 17:29:21;;;;;;;7.40;3.60;;;1.10;92.70;;;;;;20910720;28;20033;-54
2021/03/23 17:39:23;;;;;;;7.80;3.72;;;0.70;93.90;;;;;;20909819;28;20094;-55
2021/03/23 17:49:25;;;;;;;7.22;3.65;;;0.40;95.00;;;;;;20907584;28;20053;-56
2021/03/23 17:59:29;;;;;;;7.88;4.15;;;0.10;97.00;;;;;;20910162;28;20464;-55
2021/03/23 18:09:32;;;;;;;7.90;4.35;;;-0.10;98.30;;;;;;20908149;28;20083;-55
2021/03/23 18:19:35;;;;;;;7.95;4.35;;;-0.30;99.70;;;;;;20890725;28;20033;-57
2021/03/23 18:29:38;;;;;;;10.82;4.47;;;-0.50;99.90;;;;;;20914418;28;20041;-57
2021/03/23 18:39:42;;;;;;;8.13;4.15;;;-0.60;99.90;;;;;;20923123;28;20091;-54
2021/03/23 18:49:44;;;;;;;6.75;3.60;;;-0.50;99.90;;;;;;20921223;28;20068;-50
2021/03/23 18:59:46;;;;;;;8.60;4.35;;;-0.70;99.90;;;;;;20921737;28;20029;-51
2021/03/23 19:09:49;;;;;;;7.95;4.18;;;-0.70;99.90;;;;;;20920381;28;20561;-55
2021/03/23 19:19:51;;;;;;;9.02;4.32;;;-0.80;99.90;;;;;;20919046;28;20059;-55
2021/03/23 19:29:53;;;;;;;8.95;4.20;;;-0.80;99.90;;;;;;20901370;28;20041;-68
2021/03/23 19:39:54;;;;;;;9.68;4.40;;;-0.80;99.90;;;;;;20916314;28;20604;-54
2021/03/23 19:49:58;;;;;;;6.80;4.30;;;-0.80;99.90;;;;;;20917738;28;20067;-49
2021/03/23 20:00:01;;;;;;;8.60;4.30;;;-0.80;99.90;;;;;;20917112;28;20468;-50
2021/03/23 20:10:05;;;;;;;8.48;4.40;;;-0.80;99.90;;;;;;20916212;28;20053;-53
2021/03/23 20:20:12;;;;;;;9.00;4.28;;;-0.60;99.90;;;;;;20913579;28;20553;-51
2021/03/23 20:30:21;;;;;;;10.68;4.70;;;-0.50;99.90;;;;;;20912693;28;20045;-54
2021/03/23 20:40:27;;;;;;;8.38;4.20;;;-0.50;99.90;;;;;;20912852;28;20094;-55
2021/03/23 20:50:33;;;;;;;7.20;3.72;;;-0.70;99.90;;;;;;20911574;28;20107;-54
2021/03/23 21:00:36;;;;;;;6.40;3.22;;;-0.70;99.90;;;;;;20911861;28;20048;-52
2021/03/23 21:10:48;;;;;;;9.13;3.28;;;-0.90;99.90;;;;;;20911360;28;20049;-51
2021/03/23 21:20:52;;;;;;;7.13;3.28;;;-0.90;99.90;;;;;;20893294;28;20083;-51
2021/03/23 21:31:21;;;;;;;5.22;2.58;;;-0.80;99.90;;;;;;20910257;28;20496;-55
2021/03/23 21:41:30;;;;;;;6.78;2.97;;;-0.70;99.90;;;;;;20908611;28;20044;-53
2021/03/23 21:51:33;;;;;;;3.75;2.40;;;-0.60;99.90;;;;;;20891719;28;20102;-49
2021/03/23 22:01:39;;;;;;;6.90;2.03;;;-0.60;99.90;;;;;;20911261;28;20049;-55
2021/03/23 22:11:42;;;;;;;4.68;2.00;;;-0.40;99.90;;;;;;20925236;28;20071;-49
2021/03/23 22:21:44;;;;;;;3.47;1.88;;;-0.30;99.90;;;;;;20924810;28;20395;-53
2021/03/23 22:31:46;;;;;;;6.60;2.22;;;-0.40;99.90;;;;;;20922959;28;20435;-54
2021/03/23 22:41:47;;;;;;;5.07;2.10;;;-0.30;99.90;;;;;;20923308;28;20029;-50
2021/03/23 22:51:49;;;;;;;3.42;1.80;;;-0.40;99.90;;;;;;20921090;28;20078;-52
2021/03/23 23:01:52;;;;;;;3.08;1.60;;;-0.40;99.90;;;;;;20903823;28;20082;-53
2021/03/23 23:11:54;;;;;;;2.63;1.40;;;-0.50;99.90;;;;;;20902980;28;20049;-51
2021/03/23 23:21:59;;;;;;;2.03;0.90;;;-0.60;99.90;;;;;;20920711;28;20090;-52
2021/03/23 23:32:02;;;;;;;2.35;0.85;;;-0.70;99.90;;;;;;20917862;28;20392;-52
2021/03/23 23:42:05;;;;;;;1.35;0.60;;;-0.60;99.90;;;;;;20901088;28;20033;-55
2021/03/23 23:52:07;;;;;;;0.98;0.52;;;-0.40;99.90;;;;;;20917605;28;20041;-55
